sensor_id;sensor_type;location;lat;lon;timestamp;P1;durP1;ratioP1;P2;durP2;ratioP2
34296;SDS011;20564;42.902;25.336;2023-07-31T00:01:00;9.85;;;4.60;;
34296;SDS011;20564;42.902;25.336;2023-07-31T00:03:27;9.10;;;4.53;;
34296;SDS011;20564;42.902;25.336;2023-07-31T00:05:54;9.57;;;4.57;;
34296;SDS011;20564;42.902;25.336;2023-07-31T00:08:21;9.40;;;4.47;;
34296;SDS011;20564;42.902;25.336;2023-07-31T00:10:51;10.13;;;4.53;;
34296;SDS011;20564;42.902;25.336;2023-07-31T00:13:19;9.48;;;5.05;;
34296;SDS011;20564;42.902;25.336;2023-07-31T00:15:46;11.02;;;4.65;;
34296;SDS011;20564;42.902;25.336;2023-07-31T00:18:14;9.48;;;4.65;;
34296;SDS011;20564;42.902;25.336;2023-07-31T00:20:42;10.27;;;4.72;;
34296;SDS011;20564;42.902;25.336;2023-07-31T00:23:09;10.32;;;4.70;;
34296;SDS011;20564;42.902;25.336;2023-07-31T00:25:38;10.32;;;5.05;;
34296;SDS011;20564;42.902;25.336;2023-07-31T00:28:05;9.27;;;4.63;;
34296;SDS011;20564;42.902;25.336;2023-07-31T00:32:59;9.77;;;4.70;;
34296;SDS011;20564;42.902;25.336;2023-07-31T00:35:27;10.02;;;5.05;;
34296;SDS011;20564;42.902;25.336;2023-07-31T00:37:54;9.90;;;4.90;;
34296;SDS011;20564;42.902;25.336;2023-07-31T00:40:21;10.23;;;4.68;;
34296;SDS011;20564;42.902;25.336;2023-07-31T00:42:48;10.15;;;5.15;;
34296;SDS011;20564;42.902;25.336;2023-07-31T00:45:15;10.10;;;4.93;;
34296;SDS011;20564;42.902;25.336;2023-07-31T00:47:42;11.07;;;5.50;;
34296;SDS011;20564;42.902;25.336;2023-07-31T00:50:12;10.07;;;5.40;;
34296;SDS011;20564;42.902;25.336;2023-07-31T00:52:40;10.30;;;5.07;;
34296;SDS011;20564;42.902;25.336;2023-07-31T01:00:03;8.93;;;4.78;;
34296;SDS011;20564;42.902;25.336;2023-07-31T01:04:57;9.18;;;4.78;;
34296;SDS011;20564;42.902;25.336;2023-07-31T01:07:35;10.93;;;5.30;;
34296;SDS011;20564;42.902;25.336;2023-07-31T01:10:13;11.65;;;6.05;;
34296;SDS011;20564;42.902;25.336;2023-07-31T01:12:45;12.07;;;5.30;;
34296;SDS011;20564;42.902;25.336;2023-07-31T01:15:13;11.23;;;5.57;;
34296;SDS011;20564;42.902;25.336;2023-07-31T01:17:41;11.48;;;5.70;;
34296;SDS011;20564;42.902;25.336;2023-07-31T01:28:28;11.73;;;5.82;;
34296;SDS011;20564;42.902;25.336;2023-07-31T01:31:11;10.80;;;5.78;;
34296;SDS011;20564;42.902;25.336;2023-07-31T01:33:43;11.57;;;5.90;;
34296;SDS011;20564;42.902;25.336;2023-07-31T01:41:04;12.23;;;5.30;;
34296;SDS011;20564;42.902;25.336;2023-07-31T01:43:32;13.05;;;5.95;;
34296;SDS011;20564;42.902;25.336;2023-07-31T01:45:59;10.90;;;5.88;;
34296;SDS011;20564;42.902;25.336;2023-07-31T01:48:26;12.18;;;6.28;;
34296;SDS011;20564;42.902;25.336;2023-07-31T01:50:53;11.13;;;5.78;;
34296;SDS011;20564;42.902;25.336;2023-07-31T01:53:20;12.75;;;6.47;;
34296;SDS011;20564;42.902;25.336;2023-07-31T01:55:47;11.98;;;6.18;;
34296;SDS011;20564;42.902;25.336;2023-07-31T01:58:14;12.00;;;6.32;;
34296;SDS011;20564;42.902;25.336;2023-07-31T02:00:42;11.00;;;6.60;;
34296;SDS011;20564;42.902;25.336;2023-07-31T02:03:09;11.20;;;6.00;;
34296;SDS011;20564;42.902;25.336;2023-07-31T02:05:36;13.27;;;6.60;;
34296;SDS011;20564;42.902;25.336;2023-07-31T02:08:10;12.55;;;5.75;;
34296;SDS011;20564;42.902;25.336;2023-07-31T02:10:37;12.23;;;6.22;;
34296;SDS011;20564;42.902;25.336;2023-07-31T02:13:04;12.35;;;6.55;;
34296;SDS011;20564;42.902;25.336;2023-07-31T02:15:33;11.15;;;6.03;;
34296;SDS011;20564;42.902;25.336;2023-07-31T02:18:01;11.27;;;5.90;;
34296;SDS011;20564;42.902;25.336;2023-07-31T02:20:28;11.73;;;5.90;;
34296;SDS011;20564;42.902;25.336;2023-07-31T02:22:55;11.95;;;6.18;;
34296;SDS011;20564;42.902;25.336;2023-07-31T02:25:22;12.80;;;6.43;;
34296;SDS011;20564;42.902;25.336;2023-07-31T02:27:49;11.13;;;6.18;;
34296;SDS011;20564;42.902;25.336;2023-07-31T02:30:16;12.70;;;6.80;;
34296;SDS011;20564;42.902;25.336;2023-07-31T02:32:42;11.35;;;6.00;;
34296;SDS011;20564;42.902;25.336;2023-07-31T02:35:09;12.82;;;6.28;;
34296;SDS011;20564;42.902;25.336;2023-07-31T02:37:38;12.27;;;6.28;;
34296;SDS011;20564;42.902;25.336;2023-07-31T02:40:06;11.68;;;5.90;;
34296;SDS011;20564;42.902;25.336;2023-07-31T02:42:33;11.13;;;5.90;;
34296;SDS011;20564;42.902;25.336;2023-07-31T02:45:00;11.73;;;5.60;;
34296;SDS011;20564;42.902;25.336;2023-07-31T02:47:27;12.50;;;6.10;;
34296;SDS011;20564;42.902;25.336;2023-07-31T02:49:54;11.73;;;6.40;;
34296;SDS011;20564;42.902;25.336;2023-07-31T02:52:22;12.18;;;5.80;;
34296;SDS011;20564;42.902;25.336;2023-07-31T02:54:49;11.82;;;6.13;;
34296;SDS011;20564;42.902;25.336;2023-07-31T02:57:16;11.75;;;5.88;;
34296;SDS011;20564;42.902;25.336;2023-07-31T02:59:42;13.23;;;6.53;;
34296;SDS011;20564;42.902;25.336;2023-07-31T03:02:09;10.77;;;5.95;;
34296;SDS011;20564;42.902;25.336;2023-07-31T03:04:37;11.55;;;6.18;;
34296;SDS011;20564;42.902;25.336;2023-07-31T03:07:04;12.93;;;6.38;;
34296;SDS011;20564;42.902;25.336;2023-07-31T03:09:32;13.00;;;6.70;;
34296;SDS011;20564;42.902;25.336;2023-07-31T03:11:59;12.35;;;6.43;;
34296;SDS011;20564;42.902;25.336;2023-07-31T03:14:26;13.27;;;6.60;;
34296;SDS011;20564;42.902;25.336;2023-07-31T03:16:53;11.77;;;6.40;;
34296;SDS011;20564;42.902;25.336;2023-07-31T03:19:20;12.63;;;5.97;;
34296;SDS011;20564;42.902;25.336;2023-07-31T03:21:47;12.38;;;6.28;;
34296;SDS011;20564;42.902;25.336;2023-07-31T03:24:14;14.10;;;6.47;;
34296;SDS011;20564;42.902;25.336;2023-07-31T03:26:41;11.23;;;6.03;;
34296;SDS011;20564;42.902;25.336;2023-07-31T03:29:08;13.65;;;6.90;;
34296;SDS011;20564;42.902;25.336;2023-07-31T03:31:35;13.20;;;6.50;;
34296;SDS011;20564;42.902;25.336;2023-07-31T03:34:01;11.93;;;6.15;;
34296;SDS011;20564;42.902;25.336;2023-07-31T03:36:28;12.75;;;6.47;;
34296;SDS011;20564;42.902;25.336;2023-07-31T03:38:55;13.40;;;6.40;;
34296;SDS011;20564;42.902;25.336;2023-07-31T03:41:22;14.27;;;7.07;;
34296;SDS011;20564;42.902;25.336;2023-07-31T03:43:50;12.57;;;6.30;;
34296;SDS011;20564;42.902;25.336;2023-07-31T03:46:18;11.77;;;5.75;;
34296;SDS011;20564;42.902;25.336;2023-07-31T03:48:45;12.70;;;6.20;;
34296;SDS011;20564;42.902;25.336;2023-07-31T03:51:12;12.15;;;6.32;;
34296;SDS011;20564;42.902;25.336;2023-07-31T03:53:39;13.43;;;6.97;;
34296;SDS011;20564;42.902;25.336;2023-07-31T03:56:06;13.73;;;6.30;;
34296;SDS011;20564;42.902;25.336;2023-07-31T03:58:33;12.00;;;6.20;;
34296;SDS011;20564;42.902;25.336;2023-07-31T04:00:59;13.02;;;6.40;;
34296;SDS011;20564;42.902;25.336;2023-07-31T04:03:26;12.23;;;5.40;;
34296;SDS011;20564;42.902;25.336;2023-07-31T04:05:56;12.05;;;6.30;;
34296;SDS011;20564;42.902;25.336;2023-07-31T04:08:23;13.07;;;6.95;;
34296;SDS011;20564;42.902;25.336;2023-07-31T04:10:50;11.10;;;6.30;;
34296;SDS011;20564;42.902;25.336;2023-07-31T04:13:17;12.53;;;6.33;;
34296;SDS011;20564;42.902;25.336;2023-07-31T04:15:47;11.15;;;5.68;;
34296;SDS011;20564;42.902;25.336;2023-07-31T04:18:16;11.75;;;5.90;;
34296;SDS011;20564;42.902;25.336;2023-07-31T04:20:43;11.23;;;6.28;;
34296;SDS011;20564;42.902;25.336;2023-07-31T04:23:10;12.60;;;6.32;;
34296;SDS011;20564;42.902;25.336;2023-07-31T04:25:38;15.70;;;7.22;;
34296;SDS011;20564;42.902;25.336;2023-07-31T04:28:05;15.43;;;7.03;;
34296;SDS011;20564;42.902;25.336;2023-07-31T04:30:31;12.95;;;6.38;;
34296;SDS011;20564;42.902;25.336;2023-07-31T04:32:58;13.15;;;6.50;;
34296;SDS011;20564;42.902;25.336;2023-07-31T04:35:26;13.40;;;6.82;;
34296;SDS011;20564;42.902;25.336;2023-07-31T04:37:53;12.57;;;6.65;;
34296;SDS011;20564;42.902;25.336;2023-07-31T04:40:20;14.80;;;6.72;;
34296;SDS011;20564;42.902;25.336;2023-07-31T04:42:47;14.52;;;6.93;;
34296;SDS011;20564;42.902;25.336;2023-07-31T04:45:14;12.80;;;6.37;;
34296;SDS011;20564;42.902;25.336;2023-07-31T04:47:41;11.73;;;6.45;;
34296;SDS011;20564;42.902;25.336;2023-07-31T04:50:08;11.95;;;6.65;;
34296;SDS011;20564;42.902;25.336;2023-07-31T04:52:35;15.45;;;6.90;;
34296;SDS011;20564;42.902;25.336;2023-07-31T04:55:02;12.90;;;6.57;;
34296;SDS011;20564;42.902;25.336;2023-07-31T04:57:29;12.57;;;6.45;;
34296;SDS011;20564;42.902;25.336;2023-07-31T04:59:56;13.82;;;6.60;;
34296;SDS011;20564;42.902;25.336;2023-07-31T05:02:23;12.32;;;6.45;;
34296;SDS011;20564;42.902;25.336;2023-07-31T05:04:51;12.35;;;5.97;;
34296;SDS011;20564;42.902;25.336;2023-07-31T05:07:18;13.20;;;6.83;;
34296;SDS011;20564;42.902;25.336;2023-07-31T05:09:44;11.65;;;6.20;;
34296;SDS011;20564;42.902;25.336;2023-07-31T05:12:12;11.95;;;6.03;;
34296;SDS011;20564;42.902;25.336;2023-07-31T05:14:39;11.82;;;6.00;;
34296;SDS011;20564;42.902;25.336;2023-07-31T05:17:06;12.02;;;6.25;;
34296;SDS011;20564;42.902;25.336;2023-07-31T05:19:33;13.50;;;6.68;;
34296;SDS011;20564;42.902;25.336;2023-07-31T05:22:00;12.38;;;6.45;;
34296;SDS011;20564;42.902;25.336;2023-07-31T05:24:27;13.00;;;6.00;;
34296;SDS011;20564;42.902;25.336;2023-07-31T05:26:54;12.25;;;6.32;;
34296;SDS011;20564;42.902;25.336;2023-07-31T05:29:21;13.93;;;6.95;;
34296;SDS011;20564;42.902;25.336;2023-07-31T05:31:47;14.77;;;7.60;;
34296;SDS011;20564;42.902;25.336;2023-07-31T05:34:15;13.98;;;7.50;;
34296;SDS011;20564;42.902;25.336;2023-07-31T05:36:42;13.07;;;7.80;;
34296;SDS011;20564;42.902;25.336;2023-07-31T05:39:09;12.57;;;7.07;;
34296;SDS011;20564;42.902;25.336;2023-07-31T05:41:36;12.50;;;7.18;;
34296;SDS011;20564;42.902;25.336;2023-07-31T05:44:03;14.50;;;7.65;;
34296;SDS011;20564;42.902;25.336;2023-07-31T05:46:30;14.85;;;8.15;;
34296;SDS011;20564;42.902;25.336;2023-07-31T05:48:58;20.08;;;10.70;;
34296;SDS011;20564;42.902;25.336;2023-07-31T05:51:27;16.15;;;8.98;;
34296;SDS011;20564;42.902;25.336;2023-07-31T05:53:54;19.63;;;11.80;;
34296;SDS011;20564;42.902;25.336;2023-07-31T05:56:21;20.35;;;11.45;;
34296;SDS011;20564;42.902;25.336;2023-07-31T05:58:50;21.75;;;11.23;;
34296;SDS011;20564;42.902;25.336;2023-07-31T06:01:17;19.42;;;9.70;;
34296;SDS011;20564;42.902;25.336;2023-07-31T06:03:48;16.63;;;8.30;;
34296;SDS011;20564;42.902;25.336;2023-07-31T06:06:14;13.18;;;6.93;;
34296;SDS011;20564;42.902;25.336;2023-07-31T06:08:41;14.85;;;7.55;;
34296;SDS011;20564;42.902;25.336;2023-07-31T06:11:08;13.75;;;7.07;;
34296;SDS011;20564;42.902;25.336;2023-07-31T06:13:35;13.25;;;7.13;;
34296;SDS011;20564;42.902;25.336;2023-07-31T06:16:02;14.23;;;6.88;;
34296;SDS011;20564;42.902;25.336;2023-07-31T06:18:32;18.38;;;6.63;;
34296;SDS011;20564;42.902;25.336;2023-07-31T06:21:02;12.50;;;5.75;;
34296;SDS011;20564;42.902;25.336;2023-07-31T06:23:29;12.85;;;5.70;;
34296;SDS011;20564;42.902;25.336;2023-07-31T06:25:56;11.85;;;5.35;;
34296;SDS011;20564;42.902;25.336;2023-07-31T06:28:27;13.77;;;6.45;;
34296;SDS011;20564;42.902;25.336;2023-07-31T06:30:58;13.88;;;6.05;;
34296;SDS011;20564;42.902;25.336;2023-07-31T06:33:25;13.23;;;6.53;;
34296;SDS011;20564;42.902;25.336;2023-07-31T06:35:52;13.30;;;5.90;;
34296;SDS011;20564;42.902;25.336;2023-07-31T06:40:49;11.73;;;5.88;;
34296;SDS011;20564;42.902;25.336;2023-07-31T06:43:15;13.07;;;5.68;;
34296;SDS011;20564;42.902;25.336;2023-07-31T06:45:42;14.13;;;6.10;;
34296;SDS011;20564;42.902;25.336;2023-07-31T06:48:09;11.13;;;5.63;;
34296;SDS011;20564;42.902;25.336;2023-07-31T06:50:38;13.02;;;6.05;;
34296;SDS011;20564;42.902;25.336;2023-07-31T06:53:05;13.27;;;5.72;;
34296;SDS011;20564;42.902;25.336;2023-07-31T06:55:32;12.52;;;5.60;;
34296;SDS011;20564;42.902;25.336;2023-07-31T06:58:00;11.90;;;5.93;;
34296;SDS011;20564;42.902;25.336;2023-07-31T07:00:26;14.20;;;5.97;;
34296;SDS011;20564;42.902;25.336;2023-07-31T07:02:53;12.88;;;5.95;;
34296;SDS011;20564;42.902;25.336;2023-07-31T07:05:20;12.07;;;5.57;;
34296;SDS011;20564;42.902;25.336;2023-07-31T07:07:48;11.30;;;5.70;;
34296;SDS011;20564;42.902;25.336;2023-07-31T07:10:16;11.85;;;6.00;;
34296;SDS011;20564;42.902;25.336;2023-07-31T07:12:43;11.65;;;5.68;;
34296;SDS011;20564;42.902;25.336;2023-07-31T07:15:10;12.32;;;5.53;;
34296;SDS011;20564;42.902;25.336;2023-07-31T07:17:37;12.88;;;5.53;;
34296;SDS011;20564;42.902;25.336;2023-07-31T07:20:04;11.93;;;6.18;;
34296;SDS011;20564;42.902;25.336;2023-07-31T07:24:58;10.75;;;4.80;;
34296;SDS011;20564;42.902;25.336;2023-07-31T07:27:25;11.43;;;5.32;;
34296;SDS011;20564;42.902;25.336;2023-07-31T07:29:52;11.10;;;5.28;;
34296;SDS011;20564;42.902;25.336;2023-07-31T07:32:20;10.68;;;5.32;;
34296;SDS011;20564;42.902;25.336;2023-07-31T07:37:14;11.98;;;5.55;;
34296;SDS011;20564;42.902;25.336;2023-07-31T07:39:42;11.32;;;5.30;;
34296;SDS011;20564;42.902;25.336;2023-07-31T07:44:36;11.82;;;4.30;;
34296;SDS011;20564;42.902;25.336;2023-07-31T07:47:03;11.13;;;4.72;;
34296;SDS011;20564;42.902;25.336;2023-07-31T07:49:33;11.40;;;4.75;;
34296;SDS011;20564;42.902;25.336;2023-07-31T07:52:01;11.13;;;5.15;;
34296;SDS011;20564;42.902;25.336;2023-07-31T07:54:31;10.45;;;4.82;;
34296;SDS011;20564;42.902;25.336;2023-07-31T07:56:58;9.82;;;4.60;;
34296;SDS011;20564;42.902;25.336;2023-07-31T07:59:25;9.77;;;4.47;;
34296;SDS011;20564;42.902;25.336;2023-07-31T08:01:52;9.55;;;3.95;;
34296;SDS011;20564;42.902;25.336;2023-07-31T08:04:20;9.13;;;4.15;;
34296;SDS011;20564;42.902;25.336;2023-07-31T08:06:47;9.40;;;4.20;;
34296;SDS011;20564;42.902;25.336;2023-07-31T08:09:13;9.02;;;4.05;;
34296;SDS011;20564;42.902;25.336;2023-07-31T08:11:40;10.23;;;4.18;;
34296;SDS011;20564;42.902;25.336;2023-07-31T08:14:07;9.10;;;3.90;;
34296;SDS011;20564;42.902;25.336;2023-07-31T08:16:35;8.10;;;3.28;;
34296;SDS011;20564;42.902;25.336;2023-07-31T08:19:02;8.50;;;3.50;;
34296;SDS011;20564;42.902;25.336;2023-07-31T08:21:29;7.53;;;3.05;;
34296;SDS011;20564;42.902;25.336;2023-07-31T08:23:56;8.50;;;3.35;;
34296;SDS011;20564;42.902;25.336;2023-07-31T08:26:23;7.43;;;3.20;;
34296;SDS011;20564;42.902;25.336;2023-07-31T08:28:50;7.97;;;3.20;;
34296;SDS011;20564;42.902;25.336;2023-07-31T08:31:17;5.88;;;2.70;;
34296;SDS011;20564;42.902;25.336;2023-07-31T08:33:45;5.97;;;2.67;;
34296;SDS011;20564;42.902;25.336;2023-07-31T08:36:11;8.00;;;3.03;;
34296;SDS011;20564;42.902;25.336;2023-07-31T08:41:05;4.75;;;2.28;;
34296;SDS011;20564;42.902;25.336;2023-07-31T08:43:32;6.40;;;2.60;;
34296;SDS011;20564;42.902;25.336;2023-07-31T08:48:27;5.57;;;2.25;;
34296;SDS011;20564;42.902;25.336;2023-07-31T08:50:55;4.95;;;2.67;;
34296;SDS011;20564;42.902;25.336;2023-07-31T08:53:22;7.18;;;2.90;;
34296;SDS011;20564;42.902;25.336;2023-07-31T08:55:50;5.93;;;2.80;;
34296;SDS011;20564;42.902;25.336;2023-07-31T08:58:19;6.22;;;2.42;;
34296;SDS011;20564;42.902;25.336;2023-07-31T09:00:46;4.40;;;2.42;;
34296;SDS011;20564;42.902;25.336;2023-07-31T09:03:14;5.15;;;2.35;;
34296;SDS011;20564;42.902;25.336;2023-07-31T09:05:43;5.90;;;2.30;;
34296;SDS011;20564;42.902;25.336;2023-07-31T09:08:13;5.72;;;2.20;;
34296;SDS011;20564;42.902;25.336;2023-07-31T09:10:44;5.80;;;2.50;;
34296;SDS011;20564;42.902;25.336;2023-07-31T09:13:16;6.40;;;2.30;;
34296;SDS011;20564;42.902;25.336;2023-07-31T09:15:43;4.72;;;2.05;;
34296;SDS011;20564;42.902;25.336;2023-07-31T09:18:12;6.55;;;2.20;;
34296;SDS011;20564;42.902;25.336;2023-07-31T09:20:43;5.50;;;2.33;;
34296;SDS011;20564;42.902;25.336;2023-07-31T09:23:11;5.10;;;2.33;;
34296;SDS011;20564;42.902;25.336;2023-07-31T09:25:40;6.22;;;2.35;;
34296;SDS011;20564;42.902;25.336;2023-07-31T09:28:10;5.57;;;2.22;;
34296;SDS011;20564;42.902;25.336;2023-07-31T09:30:49;5.95;;;2.10;;
34296;SDS011;20564;42.902;25.336;2023-07-31T09:33:17;4.43;;;2.00;;
34296;SDS011;20564;42.902;25.336;2023-07-31T09:35:46;3.90;;;1.90;;
34296;SDS011;20564;42.902;25.336;2023-07-31T09:38:15;4.80;;;2.08;;
34296;SDS011;20564;42.902;25.336;2023-07-31T09:40:44;5.13;;;2.00;;
34296;SDS011;20564;42.902;25.336;2023-07-31T09:43:19;3.38;;;2.00;;
34296;SDS011;20564;42.902;25.336;2023-07-31T09:45:47;5.32;;;1.65;;
34296;SDS011;20564;42.902;25.336;2023-07-31T09:48:15;2.97;;;1.50;;
34296;SDS011;20564;42.902;25.336;2023-07-31T09:50:44;4.07;;;1.63;;
34296;SDS011;20564;42.902;25.336;2023-07-31T09:53:13;3.50;;;1.30;;
34296;SDS011;20564;42.902;25.336;2023-07-31T09:55:41;2.58;;;1.40;;
34296;SDS011;20564;42.902;25.336;2023-07-31T09:58:10;4.07;;;1.50;;
34296;SDS011;20564;42.902;25.336;2023-07-31T10:00:38;3.90;;;1.70;;
34296;SDS011;20564;42.902;25.336;2023-07-31T10:03:09;3.10;;;1.50;;
34296;SDS011;20564;42.902;25.336;2023-07-31T10:05:42;3.97;;;1.70;;
34296;SDS011;20564;42.902;25.336;2023-07-31T10:08:13;3.55;;;1.52;;
34296;SDS011;20564;42.902;25.336;2023-07-31T10:10:42;4.20;;;1.60;;
34296;SDS011;20564;42.902;25.336;2023-07-31T10:13:12;3.60;;;1.63;;
34296;SDS011;20564;42.902;25.336;2023-07-31T10:15:40;3.75;;;1.50;;
34296;SDS011;20564;42.902;25.336;2023-07-31T10:18:10;3.90;;;1.50;;
34296;SDS011;20564;42.902;25.336;2023-07-31T10:20:38;3.25;;;1.70;;
34296;SDS011;20564;42.902;25.336;2023-07-31T10:23:05;3.35;;;1.77;;
34296;SDS011;20564;42.902;25.336;2023-07-31T10:25:32;4.32;;;1.80;;
34296;SDS011;20564;42.902;25.336;2023-07-31T10:28:01;3.42;;;1.48;;
34296;SDS011;20564;42.902;25.336;2023-07-31T10:30:29;3.97;;;1.65;;
34296;SDS011;20564;42.902;25.336;2023-07-31T10:32:59;3.38;;;1.65;;
34296;SDS011;20564;42.902;25.336;2023-07-31T10:35:27;4.07;;;1.67;;
34296;SDS011;20564;42.902;25.336;2023-07-31T10:37:54;3.92;;;1.80;;
34296;SDS011;20564;42.902;25.336;2023-07-31T10:40:27;3.88;;;1.70;;
34296;SDS011;20564;42.902;25.336;2023-07-31T10:42:55;5.00;;;1.60;;
34296;SDS011;20564;42.902;25.336;2023-07-31T10:45:30;3.67;;;1.50;;
34296;SDS011;20564;42.902;25.336;2023-07-31T10:48:01;3.80;;;1.67;;
34296;SDS011;20564;42.902;25.336;2023-07-31T10:50:52;3.10;;;1.45;;
34296;SDS011;20564;42.902;25.336;2023-07-31T10:53:23;5.75;;;1.63;;
34296;SDS011;20564;42.902;25.336;2023-07-31T10:55:59;3.75;;;1.50;;
34296;SDS011;20564;42.902;25.336;2023-07-31T10:58:30;2.97;;;1.58;;
34296;SDS011;20564;42.902;25.336;2023-07-31T11:01:05;3.97;;;1.80;;
34296;SDS011;20564;42.902;25.336;2023-07-31T11:03:48;3.45;;;1.70;;
34296;SDS011;20564;42.902;25.336;2023-07-31T11:06:18;3.80;;;1.90;;
34296;SDS011;20564;42.902;25.336;2023-07-31T11:08:46;5.35;;;1.88;;
34296;SDS011;20564;42.902;25.336;2023-07-31T11:11:15;4.10;;;1.70;;
34296;SDS011;20564;42.902;25.336;2023-07-31T11:13:45;4.18;;;1.88;;
34296;SDS011;20564;42.902;25.336;2023-07-31T11:16:20;4.47;;;1.83;;
34296;SDS011;20564;42.902;25.336;2023-07-31T11:18:49;4.97;;;1.92;;
34296;SDS011;20564;42.902;25.336;2023-07-31T11:21:19;3.72;;;2.05;;
34296;SDS011;20564;42.902;25.336;2023-07-31T11:23:51;4.10;;;2.05;;
34296;SDS011;20564;42.902;25.336;2023-07-31T11:26:19;4.05;;;1.85;;
34296;SDS011;20564;42.902;25.336;2023-07-31T11:28:47;4.35;;;2.08;;
34296;SDS011;20564;42.902;25.336;2023-07-31T11:31:15;4.47;;;1.85;;
34296;SDS011;20564;42.902;25.336;2023-07-31T11:33:42;5.13;;;1.58;;
34296;SDS011;20564;42.902;25.336;2023-07-31T11:36:19;4.47;;;2.00;;
34296;SDS011;20564;42.902;25.336;2023-07-31T11:38:47;3.67;;;1.90;;
34296;SDS011;20564;42.902;25.336;2023-07-31T11:41:15;5.82;;;1.60;;
34296;SDS011;20564;42.902;25.336;2023-07-31T11:43:44;5.38;;;2.00;;
34296;SDS011;20564;42.902;25.336;2023-07-31T11:46:12;3.50;;;1.60;;
34296;SDS011;20564;42.902;25.336;2023-07-31T11:48:41;4.13;;;1.75;;
34296;SDS011;20564;42.902;25.336;2023-07-31T11:51:10;3.63;;;1.75;;
34296;SDS011;20564;42.902;25.336;2023-07-31T11:53:43;4.07;;;1.83;;
34296;SDS011;20564;42.902;25.336;2023-07-31T11:56:24;2.20;;;1.42;;
34296;SDS011;20564;42.902;25.336;2023-07-31T11:58:57;5.18;;;1.75;;
34296;SDS011;20564;42.902;25.336;2023-07-31T12:01:26;8.57;;;2.55;;
34296;SDS011;20564;42.902;25.336;2023-07-31T12:03:54;7.82;;;1.73;;
34296;SDS011;20564;42.902;25.336;2023-07-31T12:06:27;3.72;;;1.80;;
34296;SDS011;20564;42.902;25.336;2023-07-31T12:09:05;4.93;;;2.05;;
34296;SDS011;20564;42.902;25.336;2023-07-31T12:11:45;3.50;;;1.60;;
34296;SDS011;20564;42.902;25.336;2023-07-31T12:14:20;3.50;;;1.80;;
34296;SDS011;20564;42.902;25.336;2023-07-31T12:16:57;3.95;;;1.75;;
34296;SDS011;20564;42.902;25.336;2023-07-31T12:19:26;3.58;;;1.67;;
34296;SDS011;20564;42.902;25.336;2023-07-31T12:21:57;23.30;;;2.95;;
34296;SDS011;20564;42.902;25.336;2023-07-31T12:24:27;4.00;;;1.90;;
34296;SDS011;20564;42.902;25.336;2023-07-31T12:26:54;6.55;;;2.50;;
34296;SDS011;20564;42.902;25.336;2023-07-31T12:29:21;4.72;;;2.17;;
34296;SDS011;20564;42.902;25.336;2023-07-31T12:31:49;5.32;;;2.33;;
34296;SDS011;20564;42.902;25.336;2023-07-31T12:34:16;3.85;;;1.92;;
34296;SDS011;20564;42.902;25.336;2023-07-31T12:36:44;4.80;;;1.90;;
34296;SDS011;20564;42.902;25.336;2023-07-31T12:39:12;5.85;;;2.13;;
34296;SDS011;20564;42.902;25.336;2023-07-31T12:46:33;4.65;;;2.05;;
34296;SDS011;20564;42.902;25.336;2023-07-31T12:49:00;3.97;;;1.80;;
34296;SDS011;20564;42.902;25.336;2023-07-31T12:51:27;5.28;;;2.10;;
34296;SDS011;20564;42.902;25.336;2023-07-31T12:53:54;4.78;;;2.17;;
34296;SDS011;20564;42.902;25.336;2023-07-31T12:56:21;10.23;;;2.10;;
34296;SDS011;20564;42.902;25.336;2023-07-31T12:58:48;14.55;;;3.00;;
34296;SDS011;20564;42.902;25.336;2023-07-31T13:01:15;23.15;;;4.07;;
34296;SDS011;20564;42.902;25.336;2023-07-31T13:03:42;7.85;;;2.10;;
34296;SDS011;20564;42.902;25.336;2023-07-31T13:06:09;10.00;;;2.65;;
34296;SDS011;20564;42.902;25.336;2023-07-31T13:08:37;6.80;;;2.40;;
34296;SDS011;20564;42.902;25.336;2023-07-31T13:11:04;4.20;;;2.33;;
34296;SDS011;20564;42.902;25.336;2023-07-31T13:18:25;5.43;;;2.20;;
34296;SDS011;20564;42.902;25.336;2023-07-31T13:20:52;6.05;;;2.17;;
34296;SDS011;20564;42.902;25.336;2023-07-31T13:23:19;5.25;;;2.25;;
34296;SDS011;20564;42.902;25.336;2023-07-31T13:25:46;5.40;;;2.15;;
34296;SDS011;20564;42.902;25.336;2023-07-31T13:28:13;6.60;;;2.30;;
34296;SDS011;20564;42.902;25.336;2023-07-31T13:30:41;18.75;;;2.88;;
34296;SDS011;20564;42.902;25.336;2023-07-31T13:33:09;6.90;;;1.95;;
34296;SDS011;20564;42.902;25.336;2023-07-31T13:35:55;9.55;;;2.40;;
34296;SDS011;20564;42.902;25.336;2023-07-31T13:38:24;5.82;;;2.33;;
34296;SDS011;20564;42.902;25.336;2023-07-31T13:40:51;20.15;;;3.47;;
34296;SDS011;20564;42.902;25.336;2023-07-31T13:43:17;6.55;;;2.50;;
34296;SDS011;20564;42.902;25.336;2023-07-31T13:45:44;5.15;;;2.38;;
34296;SDS011;20564;42.902;25.336;2023-07-31T13:48:11;5.00;;;2.17;;
34296;SDS011;20564;42.902;25.336;2023-07-31T13:50:38;4.65;;;2.00;;
34296;SDS011;20564;42.902;25.336;2023-07-31T13:53:05;5.80;;;2.42;;
34296;SDS011;20564;42.902;25.336;2023-07-31T13:55:32;5.05;;;2.45;;
34296;SDS011;20564;42.902;25.336;2023-07-31T13:57:59;5.18;;;2.25;;
34296;SDS011;20564;42.902;25.336;2023-07-31T14:00:28;4.50;;;2.22;;
34296;SDS011;20564;42.902;25.336;2023-07-31T14:02:56;4.90;;;2.13;;
34296;SDS011;20564;42.902;25.336;2023-07-31T14:05:23;5.70;;;2.33;;
34296;SDS011;20564;42.902;25.336;2023-07-31T14:10:16;5.22;;;2.30;;
34296;SDS011;20564;42.902;25.336;2023-07-31T14:12:43;6.32;;;2.50;;
34296;SDS011;20564;42.902;25.336;2023-07-31T14:15:10;5.65;;;2.42;;
34296;SDS011;20564;42.902;25.336;2023-07-31T14:17:37;5.07;;;2.25;;
34296;SDS011;20564;42.902;25.336;2023-07-31T14:22:32;4.05;;;1.98;;
34296;SDS011;20564;42.902;25.336;2023-07-31T14:25:03;5.32;;;2.25;;
34296;SDS011;20564;42.902;25.336;2023-07-31T14:27:30;5.45;;;2.35;;
34296;SDS011;20564;42.902;25.336;2023-07-31T14:29:57;5.32;;;2.50;;
34296;SDS011;20564;42.902;25.336;2023-07-31T14:32:24;6.82;;;2.80;;
34296;SDS011;20564;42.902;25.336;2023-07-31T14:34:52;4.68;;;2.00;;
34296;SDS011;20564;42.902;25.336;2023-07-31T14:37:19;6.43;;;2.38;;
34296;SDS011;20564;42.902;25.336;2023-07-31T14:39:46;6.95;;;2.42;;
34296;SDS011;20564;42.902;25.336;2023-07-31T14:42:12;6.15;;;2.20;;
34296;SDS011;20564;42.902;25.336;2023-07-31T14:44:41;5.10;;;2.53;;
34296;SDS011;20564;42.902;25.336;2023-07-31T14:47:08;6.57;;;2.63;;
34296;SDS011;20564;42.902;25.336;2023-07-31T14:49:35;7.35;;;2.67;;
34296;SDS011;20564;42.902;25.336;2023-07-31T14:52:02;5.57;;;2.42;;
34296;SDS011;20564;42.902;25.336;2023-07-31T14:54:33;5.07;;;2.28;;
34296;SDS011;20564;42.902;25.336;2023-07-31T14:57:00;5.22;;;2.20;;
34296;SDS011;20564;42.902;25.336;2023-07-31T14:59:26;4.97;;;2.25;;
34296;SDS011;20564;42.902;25.336;2023-07-31T15:01:54;6.60;;;2.63;;
34296;SDS011;20564;42.902;25.336;2023-07-31T15:04:21;4.82;;;2.47;;
34296;SDS011;20564;42.902;25.336;2023-07-31T15:06:48;3.90;;;2.17;;
34296;SDS011;20564;42.902;25.336;2023-07-31T15:09:16;5.57;;;2.42;;
34296;SDS011;20564;42.902;25.336;2023-07-31T15:11:43;7.97;;;2.85;;
34296;SDS011;20564;42.902;25.336;2023-07-31T15:14:10;10.05;;;2.80;;
34296;SDS011;20564;42.902;25.336;2023-07-31T15:16:40;7.32;;;2.90;;
34296;SDS011;20564;42.902;25.336;2023-07-31T15:19:07;5.45;;;2.20;;
34296;SDS011;20564;42.902;25.336;2023-07-31T15:21:37;6.22;;;2.28;;
34296;SDS011;20564;42.902;25.336;2023-07-31T15:24:05;6.28;;;2.60;;
34296;SDS011;20564;42.902;25.336;2023-07-31T15:26:33;7.05;;;2.38;;